createdAt,value
2019-02-26T00:02:25.938Z,3.12
2019-02-26T00:04:56.401Z,3.28
2019-02-26T00:07:28.151Z,3.18
2019-02-26T00:09:59.641Z,3.36
2019-02-26T00:12:31.050Z,3.63
2019-02-26T00:15:02.593Z,3.64
2019-02-26T00:17:36.226Z,3.55
2019-02-26T00:37:53.462Z,3.10
2019-02-26T00:40:23.988Z,3.13
2019-02-26T00:42:55.017Z,3.31
2019-02-26T00:45:27.216Z,3.33
2019-02-26T00:47:56.294Z,3.44
2019-02-26T00:50:27.971Z,3.21
2019-02-26T00:52:59.396Z,3.06
2019-02-26T00:55:29.818Z,3.19
2019-02-26T00:58:01.063Z,3.00
2019-02-26T01:00:33.086Z,3.30
2019-02-26T01:03:03.994Z,3.04
2019-02-26T01:05:36.121Z,3.31
2019-02-26T01:08:06.464Z,3.55
2019-02-26T01:10:39.293Z,3.60
2019-02-26T01:13:08.529Z,3.50
2019-02-26T01:15:38.139Z,3.76
2019-02-26T01:18:07.738Z,3.79
2019-02-26T01:20:37.430Z,4.12
2019-02-26T01:23:07.068Z,4.18
2019-02-26T01:25:38.738Z,4.04
2019-02-26T01:28:08.095Z,4.10
2019-02-26T01:30:37.692Z,3.64
2019-02-26T01:33:08.096Z,3.74
2019-02-26T01:35:38.681Z,3.50
2019-02-26T01:38:08.302Z,3.63
2019-02-26T01:40:41.481Z,3.61
2019-02-26T01:43:09.327Z,3.42
2019-02-26T01:45:39.012Z,3.26
2019-02-26T01:48:09.221Z,3.11
2019-02-26T01:50:40.708Z,2.87
2019-02-26T01:53:12.012Z,2.81
2019-02-26T01:55:43.685Z,2.83
2019-02-26T01:58:15.915Z,2.99
2019-02-26T02:00:44.462Z,2.81
2019-02-26T02:03:14.074Z,3.09
2019-02-26T02:05:45.693Z,2.66
2019-02-26T02:08:15.572Z,2.65
2019-02-26T02:10:46.645Z,2.37
2019-02-26T02:13:16.291Z,2.49
2019-02-26T02:15:46.568Z,2.41
2019-02-26T02:18:18.220Z,2.68
2019-02-26T02:20:47.792Z,2.83
2019-02-26T02:23:19.395Z,3.09
2019-02-26T02:25:48.833Z,3.04
2019-02-26T02:28:19.538Z,2.84
2019-02-26T02:30:49.757Z,2.70
2019-02-26T02:33:23.463Z,2.71
2019-02-26T02:35:50.771Z,2.42
2019-02-26T02:38:20.624Z,2.27
2019-02-26T02:40:52.713Z,2.32
2019-02-26T02:43:23.572Z,2.39
2019-02-26T02:45:55.687Z,2.84
2019-02-26T02:48:24.460Z,2.74
2019-02-26T02:50:54.093Z,2.67
2019-02-26T02:53:24.530Z,2.50
2019-02-26T02:55:55.058Z,2.30
2019-02-26T02:58:26.084Z,2.18
2019-02-26T03:00:57.138Z,1.93
2019-02-26T03:03:27.130Z,1.86
2019-02-26T03:05:58.433Z,1.94
2019-02-26T03:08:28.250Z,1.92
2019-02-26T03:10:57.898Z,1.68
2019-02-26T03:13:28.076Z,1.60
2019-02-26T03:15:59.289Z,1.53
2019-02-26T03:18:29.220Z,1.56
2019-02-26T03:21:00.090Z,1.48
2019-02-26T03:23:31.419Z,1.30
2019-02-26T03:26:01.681Z,1.26
2019-02-26T03:28:34.878Z,1.24
2019-02-26T03:31:02.639Z,1.35
2019-02-26T03:33:32.244Z,1.21
2019-02-26T03:36:05.447Z,1.16
2019-02-26T03:38:33.200Z,1.28
2019-02-26T03:41:03.687Z,1.45
2019-02-26T03:43:34.186Z,1.43
2019-02-26T03:46:04.770Z,1.47
2019-02-26T03:48:34.381Z,1.32
2019-02-26T03:51:04.099Z,1.37
2019-02-26T03:53:36.161Z,1.47
2019-02-26T03:56:08.036Z,1.58
2019-02-26T03:58:36.732Z,1.43
2019-02-26T04:01:08.416Z,1.38
2019-02-26T04:03:39.554Z,1.55
2019-02-26T04:06:11.743Z,1.60
2019-02-26T04:08:42.227Z,1.63
2019-02-26T04:11:13.982Z,1.77
2019-02-26T04:13:45.798Z,1.92
2019-02-26T04:16:14.981Z,1.92
2019-02-26T04:18:44.644Z,1.85
2019-02-26T04:21:17.669Z,1.92
2019-02-26T04:23:46.711Z,2.03
2019-02-26T04:26:46.139Z,2.03
2019-02-26T04:29:43.511Z,1.98
2019-02-26T04:32:40.883Z,1.72
2019-02-26T04:35:29.232Z,1.74
2019-02-26T04:38:43.242Z,1.35
2019-02-26T04:41:37.648Z,1.92
2019-02-26T04:44:58.868Z,2.00
2019-02-26T04:47:33.801Z,2.45
2019-02-26T04:50:06.200Z,2.25
2019-02-26T04:52:35.895Z,2.44
2019-02-26T04:55:06.392Z,2.57
2019-02-26T04:57:39.385Z,2.53
2019-02-26T05:00:10.411Z,2.76
2019-02-26T05:02:39.085Z,2.64
2019-02-26T05:05:08.830Z,2.17
2019-02-26T05:07:41.425Z,2.11
2019-02-26T05:10:09.891Z,2.25
2019-02-26T05:12:40.185Z,1.93
2019-02-26T05:15:13.983Z,1.66
2019-02-26T05:17:41.602Z,1.42
2019-02-26T05:20:13.421Z,1.41
2019-02-26T05:22:42.674Z,1.14
2019-02-26T05:25:16.344Z,1.30
2019-02-26T05:27:46.145Z,1.39
2019-02-26T05:30:17.219Z,1.38
2019-02-26T05:32:46.394Z,1.41
2019-02-26T05:35:18.054Z,1.72
2019-02-26T05:37:47.348Z,1.80
2019-02-26T05:40:19.779Z,1.82
2019-02-26T05:42:48.390Z,2.05
2019-02-26T05:45:17.952Z,2.19
2019-02-26T05:47:50.367Z,1.93
2019-02-26T05:50:19.920Z,1.97
2019-02-26T05:52:53.481Z,2.27
2019-02-26T05:55:23.664Z,2.03
2019-02-26T05:57:52.167Z,2.03
2019-02-26T06:00:25.523Z,1.91
2019-02-26T06:02:53.121Z,1.94
2019-02-26T06:05:24.068Z,1.88
2019-02-26T06:07:54.099Z,2.24
2019-02-26T06:10:24.613Z,2.24
2019-02-26T06:12:55.057Z,2.46
2019-02-26T06:15:25.965Z,2.28
2019-02-26T06:17:56.172Z,2.27
2019-02-26T06:20:28.568Z,2.47
2019-02-26T06:22:57.148Z,2.50
2019-02-26T06:25:26.831Z,2.76
2019-02-26T06:27:56.435Z,2.74
2019-02-26T06:30:26.125Z,2.90
2019-02-26T06:32:59.679Z,2.82
2019-02-26T06:35:27.218Z,2.67
2019-02-26T06:37:59.590Z,2.94
2019-02-26T06:40:32.384Z,2.73
2019-02-26T06:43:01.274Z,2.84
2019-02-26T06:45:30.947Z,2.92
2019-02-26T06:48:00.579Z,3.01
2019-02-26T06:50:31.825Z,3.20
2019-02-26T06:53:04.416Z,3.26
2019-02-26T06:55:34.581Z,3.43
2019-02-26T06:58:21.800Z,3.44
2019-02-26T07:00:55.458Z,3.66
2019-02-26T07:03:29.614Z,3.62
2019-02-26T07:06:01.724Z,3.89
2019-02-26T07:08:30.953Z,3.96
2019-02-26T07:11:03.758Z,3.92
2019-02-26T07:13:36.836Z,4.08
2019-02-26T07:16:07.481Z,3.96
2019-02-26T07:18:39.126Z,3.84
2019-02-26T07:21:11.760Z,4.07
2019-02-26T07:23:41.382Z,4.26
2019-02-26T07:26:13.523Z,4.17
2019-02-26T07:28:44.104Z,3.77
2019-02-26T07:31:16.540Z,4.02
2019-02-26T07:33:46.867Z,4.24
2019-02-26T07:36:18.540Z,4.04
2019-02-26T07:38:51.499Z,4.14
2019-02-26T07:41:21.334Z,3.96
2019-02-26T07:43:54.607Z,4.08
2019-02-26T07:46:23.460Z,4.25
2019-02-26T07:48:54.041Z,4.45
2019-02-26T07:51:24.612Z,4.50
2019-02-26T07:53:56.078Z,4.57
2019-02-26T07:56:27.759Z,4.72
2019-02-26T07:59:01.053Z,4.61
2019-02-26T08:01:28.318Z,4.72
2019-02-26T08:03:57.983Z,4.88
2019-02-26T08:06:29.379Z,5.12
2019-02-26T08:08:58.974Z,5.13
2019-02-26T08:11:28.676Z,5.06
2019-02-26T08:13:59.274Z,5.16
2019-02-26T08:16:30.088Z,5.36
2019-02-26T08:19:01.369Z,5.30
2019-02-26T08:21:31.185Z,5.18
2019-02-26T08:24:01.057Z,5.18
2019-02-26T08:26:30.721Z,5.44
2019-02-26T08:29:02.511Z,5.40
2019-02-26T08:31:31.895Z,5.50
2019-02-26T08:34:01.581Z,5.63
2019-02-26T08:36:31.248Z,5.70
2019-02-26T08:39:00.861Z,5.72
2019-02-26T08:41:30.509Z,5.93
2019-02-26T08:44:00.141Z,5.99
2019-02-26T08:46:29.754Z,6.13
2019-02-26T08:49:08.098Z,6.50
2019-02-26T08:51:30.891Z,6.61
2019-02-26T08:54:00.560Z,6.76
2019-02-26T08:56:33.287Z,6.65
2019-02-26T08:59:03.523Z,6.88
2019-02-26T09:01:32.885Z,7.08
2019-02-26T09:04:02.532Z,7.14
2019-02-26T09:06:32.169Z,7.28
2019-02-26T09:09:02.708Z,7.13
2019-02-26T09:11:33.902Z,7.29
2019-02-26T09:14:06.596Z,7.36
2019-02-26T09:16:35.980Z,7.46
2019-02-26T09:19:05.801Z,7.47
2019-02-26T09:21:36.911Z,7.32
2019-02-26T09:24:19.137Z,7.23
2019-02-26T09:26:49.478Z,7.58
2019-02-26T09:30:06.746Z,7.82
2019-02-26T09:32:44.859Z,7.68
2019-02-26T09:35:16.878Z,7.72
2019-02-26T09:37:47.915Z,7.79
2019-02-26T09:43:06.310Z,8.17
2019-02-26T09:45:36.338Z,8.35
2019-02-26T09:48:09.924Z,8.39
2019-02-26T09:50:41.340Z,8.49
2019-02-26T09:53:10.782Z,8.63
2019-02-26T09:55:40.461Z,8.44
2019-02-26T09:58:10.134Z,8.55
2019-02-26T10:00:40.585Z,8.76
2019-02-26T10:03:13.203Z,8.82
2019-02-26T10:05:42.558Z,8.92
2019-02-26T10:08:12.147Z,9.03
2019-02-26T10:10:41.907Z,8.90
2019-02-26T10:13:11.650Z,8.88
2019-02-26T10:15:42.788Z,9.09
2019-02-26T10:18:12.700Z,9.06
2019-02-26T10:20:45.025Z,8.94
2019-02-26T10:23:13.730Z,8.84
2019-02-26T10:25:43.339Z,9.08
2019-02-26T10:28:14.111Z,9.11
2019-02-26T10:30:44.374Z,9.09
2019-02-26T10:33:17.423Z,9.20
2019-02-26T10:35:47.446Z,9.00
2019-02-26T10:38:16.564Z,9.08
2019-02-26T10:40:53.973Z,9.32
2019-02-26T10:43:17.566Z,9.47
2019-02-26T10:45:48.181Z,9.61
2019-02-26T10:48:19.764Z,9.62
2019-02-26T10:50:51.766Z,9.85
2019-02-26T10:53:22.686Z,9.44
2019-02-26T10:55:52.493Z,9.76
2019-02-26T10:58:22.120Z,9.52
2019-02-26T11:00:55.616Z,9.64
2019-02-26T11:03:24.922Z,10.02
2019-02-26T11:05:54.595Z,10.07
2019-02-26T11:08:26.766Z,10.07
2019-02-26T11:10:55.515Z,10.10
2019-02-26T11:13:25.873Z,10.22
2019-02-26T11:15:57.575Z,10.14
2019-02-26T11:18:27.744Z,10.16
2019-02-26T11:20:59.220Z,10.52
2019-02-26T11:23:31.206Z,11.04
2019-02-26T11:26:06.600Z,10.92
2019-02-26T11:28:40.387Z,10.61
2019-02-26T11:31:09.007Z,10.23
2019-02-26T11:33:39.485Z,9.87
2019-02-26T11:36:11.133Z,9.72
2019-02-26T11:38:42.167Z,10.19
2019-02-26T11:41:11.743Z,10.00
2019-02-26T11:43:41.380Z,10.48
2019-02-26T11:46:10.973Z,10.87
2019-02-26T11:48:40.561Z,10.96
2019-02-26T11:51:11.973Z,10.84
2019-02-26T11:53:43.446Z,10.93
2019-02-26T11:56:13.534Z,10.93
2019-02-26T11:58:44.200Z,11.12
2019-02-26T12:01:15.916Z,11.04
2019-02-26T12:03:45.514Z,10.74
2019-02-26T12:06:15.177Z,10.75
2019-02-26T12:08:46.962Z,10.65
2019-02-26T12:11:17.655Z,10.65
2019-02-26T12:13:50.073Z,10.58
2019-02-26T12:16:18.958Z,10.70
2019-02-26T12:18:48.758Z,11.13
2019-02-26T12:21:18.447Z,11.14
2019-02-26T12:23:48.079Z,11.12
2019-02-26T12:26:19.192Z,11.29
2019-02-26T12:28:49.080Z,11.24
2019-02-26T12:31:18.678Z,11.16
2019-02-26T12:33:48.358Z,11.16
2019-02-26T12:36:17.966Z,11.10
2019-02-26T12:38:50.114Z,11.33
2019-02-26T12:41:20.893Z,11.13
2019-02-26T12:43:50.421Z,11.03
2019-02-26T12:46:21.733Z,11.02
2019-02-26T12:48:51.919Z,11.19
2019-02-26T12:51:22.613Z,11.20
2019-02-26T12:53:52.903Z,11.41
2019-02-26T12:56:24.190Z,11.53
2019-02-26T12:58:54.743Z,11.49
2019-02-26T13:01:24.385Z,11.46
2019-02-26T13:03:55.095Z,11.37
2019-02-26T13:06:25.091Z,11.14
2019-02-26T13:08:54.823Z,11.13
2019-02-26T13:11:25.199Z,11.11
2019-02-26T13:13:54.967Z,11.02
2019-02-26T13:16:24.719Z,11.20
2019-02-26T13:19:00.129Z,11.31
2019-02-26T13:21:25.980Z,11.28
2019-02-26T13:23:59.130Z,11.06
2019-02-26T13:26:27.143Z,11.10
2019-02-26T13:29:00.359Z,11.35
2019-02-26T13:31:28.209Z,11.38
2019-02-26T13:33:57.981Z,11.35
2019-02-26T13:36:27.635Z,11.37
2019-02-26T13:38:57.293Z,11.17
2019-02-26T13:41:29.846Z,11.51
2019-02-26T13:43:58.366Z,11.26
2019-02-26T13:46:28.341Z,11.24
2019-02-26T13:48:58.013Z,11.27
2019-02-26T13:51:27.627Z,11.12
2019-02-26T13:53:57.266Z,11.12
2019-02-26T13:56:26.903Z,11.14
2019-02-26T13:58:56.550Z,11.16
2019-02-26T14:01:26.197Z,11.25
2019-02-26T14:03:55.855Z,11.19
2019-02-26T14:06:25.479Z,11.26
2019-02-26T14:08:55.335Z,11.24
2019-02-26T14:11:25.100Z,11.26
2019-02-26T14:13:54.764Z,11.08
2019-02-26T14:16:24.411Z,11.22
2019-02-26T14:18:54.256Z,10.91
2019-02-26T14:21:23.838Z,11.13
2019-02-26T14:23:53.462Z,11.02
2019-02-26T14:26:23.177Z,11.05
2019-02-26T14:28:52.846Z,10.95
2019-02-26T14:31:22.766Z,10.86
2019-02-26T14:33:52.423Z,10.91
2019-02-26T14:36:22.019Z,10.89
2019-02-26T14:38:51.645Z,10.75
2019-02-26T14:41:21.261Z,10.91
2019-02-26T14:43:50.930Z,10.91
2019-02-26T14:46:20.614Z,10.83
2019-02-26T14:48:50.268Z,10.67
2019-02-26T14:51:19.833Z,10.62
2019-02-26T14:53:49.607Z,10.65
2019-02-26T14:56:19.227Z,10.64
2019-02-26T14:58:48.793Z,10.72
2019-02-26T15:01:18.398Z,10.53
2019-02-26T15:03:48.023Z,10.56
2019-02-26T15:06:17.699Z,10.47
2019-02-26T15:08:47.452Z,10.83
2019-02-26T15:11:17.035Z,10.69
2019-02-26T15:13:46.705Z,10.79
2019-02-26T15:16:19.251Z,10.85
2019-02-26T15:18:47.929Z,10.75
2019-02-26T15:21:17.676Z,10.49
2019-02-26T15:23:47.322Z,10.37
2019-02-26T15:26:16.947Z,10.32
2019-02-26T15:28:46.567Z,10.23
2019-02-26T15:31:16.140Z,10.24
2019-02-26T15:33:45.824Z,10.13
2019-02-26T15:36:15.419Z,10.08
2019-02-26T15:38:45.190Z,9.93
2019-02-26T15:41:14.802Z,9.82
2019-02-26T15:43:44.566Z,9.72
2019-02-26T15:46:14.155Z,9.55
2019-02-26T15:48:43.969Z,9.60
2019-02-26T15:51:14.582Z,9.53
2019-02-26T15:53:45.384Z,9.40
2019-02-26T15:56:15.462Z,9.47
2019-02-26T15:58:45.070Z,9.45
2019-02-26T16:01:15.170Z,9.62
2019-02-26T16:03:45.356Z,9.36
2019-02-26T16:06:15.030Z,9.51
2019-02-26T16:08:44.663Z,9.33
2019-02-26T16:11:14.346Z,9.36
2019-02-26T16:13:44.524Z,9.11
2019-02-26T16:16:14.254Z,9.09
2019-02-26T16:18:43.956Z,9.02
2019-02-26T16:21:13.656Z,9.13
2019-02-26T16:23:43.306Z,9.08
2019-02-26T16:26:12.979Z,9.05
2019-02-26T16:28:42.699Z,8.95
2019-02-26T16:31:12.382Z,9.01
2019-02-26T16:33:42.078Z,8.93
2019-02-26T16:36:13.039Z,8.93
2019-02-26T16:38:42.836Z,8.81
2019-02-26T16:41:12.501Z,8.84
2019-02-26T16:43:42.186Z,8.99
2019-02-26T16:46:11.867Z,8.84
2019-02-26T16:48:41.565Z,8.96
2019-02-26T16:51:11.272Z,8.86
2019-02-26T16:53:40.918Z,8.99
2019-02-26T16:56:10.643Z,8.84
2019-02-26T16:58:40.295Z,8.99
2019-02-26T17:01:10.337Z,8.88
2019-02-26T17:03:40.425Z,9.00
2019-02-26T17:06:10.049Z,9.04
2019-02-26T17:08:39.676Z,8.91
2019-02-26T17:11:13.307Z,8.98
2019-02-26T17:13:42.730Z,8.86
2019-02-26T17:16:12.251Z,8.95
2019-02-26T17:18:42.814Z,8.75
2019-02-26T17:21:13.180Z,8.98
2019-02-26T17:23:44.794Z,8.90
2019-02-26T17:26:19.577Z,8.85
2019-02-26T17:28:49.172Z,8.70
2019-02-26T17:31:18.832Z,8.61
2019-02-26T17:33:48.426Z,8.55
2019-02-26T17:36:18.035Z,8.50
2019-02-26T17:38:51.556Z,8.61
2019-02-26T17:41:19.138Z,8.54
2019-02-26T17:43:48.818Z,8.74
2019-02-26T17:46:18.434Z,8.67
2019-02-26T17:48:48.083Z,8.62
2019-02-26T17:51:19.083Z,8.57
2019-02-26T17:53:49.189Z,8.56
2019-02-26T17:56:18.847Z,8.58
2019-02-26T17:58:49.450Z,8.50
2019-02-26T18:01:19.122Z,8.70
2019-02-26T18:03:48.768Z,8.61
2019-02-26T18:06:18.365Z,8.50
2019-02-26T18:08:48.039Z,8.59
2019-02-26T18:11:17.641Z,8.45
2019-02-26T18:13:47.268Z,8.26
2019-02-26T18:16:16.911Z,8.27
2019-02-26T18:18:47.819Z,8.25
2019-02-26T18:21:17.453Z,8.28
2019-02-26T18:23:47.286Z,8.20
2019-02-26T18:26:17.835Z,8.43
2019-02-26T18:28:48.411Z,8.23
2019-02-26T18:31:26.244Z,8.18
2019-02-26T18:33:49.521Z,8.22
2019-02-26T18:36:19.148Z,7.94
2019-02-26T18:38:49.266Z,8.12
2019-02-26T18:41:19.089Z,7.95
2019-02-26T18:43:48.755Z,7.96
2019-02-26T18:46:18.406Z,7.96
2019-02-26T18:48:48.680Z,7.95
2019-02-26T18:51:18.891Z,8.01
2019-02-26T18:53:48.499Z,8.07
2019-02-26T18:56:18.096Z,8.09
2019-02-26T18:58:49.046Z,8.01
2019-02-26T19:01:19.083Z,7.96
2019-02-26T19:03:48.775Z,8.13
2019-02-26T19:06:18.410Z,8.11
2019-02-26T19:08:48.024Z,8.13
2019-02-26T19:11:17.625Z,8.48
2019-02-26T19:13:47.245Z,8.34
2019-02-26T19:16:20.453Z,8.31
2019-02-26T19:18:48.245Z,8.18
2019-02-26T19:21:21.579Z,8.17
2019-02-26T19:23:49.219Z,8.15
2019-02-26T19:26:18.863Z,8.11
2019-02-26T19:28:48.577Z,7.97
2019-02-26T19:31:18.196Z,8.08
2019-02-26T19:33:47.812Z,8.24
2019-02-26T19:36:17.469Z,8.12
2019-02-26T19:38:47.060Z,7.86
2019-02-26T19:41:16.855Z,7.77
2019-02-26T19:43:46.503Z,7.74
2019-02-26T19:46:17.628Z,7.86
2019-02-26T19:48:47.608Z,7.83
2019-02-26T19:51:17.242Z,7.89
2019-02-26T19:53:46.901Z,7.88
2019-02-26T19:56:16.515Z,7.92
2019-02-26T19:58:46.118Z,7.93
2019-02-26T20:01:15.776Z,8.00
2019-02-26T20:03:45.419Z,7.80
2019-02-26T20:06:15.126Z,7.73
2019-02-26T20:08:44.805Z,7.75
2019-02-26T20:11:14.435Z,7.77
2019-02-26T20:13:44.214Z,7.68
2019-02-26T20:16:13.868Z,7.66
2019-02-26T20:18:43.444Z,7.79
2019-02-26T20:21:13.228Z,7.50
2019-02-26T20:23:42.834Z,7.70
2019-02-26T20:26:16.169Z,7.73
2019-02-26T20:28:43.881Z,7.77
2019-02-26T20:31:13.478Z,7.75
2019-02-26T20:33:43.073Z,7.80
2019-02-26T20:36:12.709Z,7.85
2019-02-26T20:38:42.342Z,7.85
2019-02-26T20:41:12.024Z,7.75
2019-02-26T20:43:41.635Z,7.74
2019-02-26T20:46:11.244Z,7.89
2019-02-26T20:48:40.921Z,7.80
2019-02-26T20:51:10.613Z,7.74
2019-02-26T20:53:40.325Z,7.84
2019-02-26T20:56:09.926Z,7.78
2019-02-26T20:58:39.536Z,7.82
2019-02-26T21:01:09.148Z,7.78
2019-02-26T21:03:38.832Z,7.73
2019-02-26T21:06:08.428Z,7.71
2019-02-26T21:08:38.010Z,7.73
2019-02-26T21:11:07.634Z,7.66
2019-02-26T21:13:37.235Z,7.70
2019-02-26T21:16:06.876Z,7.70
2019-02-26T21:18:36.464Z,7.72
2019-02-26T21:21:06.105Z,7.88
2019-02-26T21:23:35.722Z,7.84
2019-02-26T21:26:05.324Z,7.83
2019-02-26T21:28:34.973Z,8.11
2019-02-26T21:31:04.731Z,7.96
2019-02-26T21:33:34.355Z,7.99
2019-02-26T21:36:03.980Z,8.00
2019-02-26T21:38:33.563Z,8.01
2019-02-26T21:41:03.244Z,7.95
2019-02-26T21:43:35.444Z,7.98
2019-02-26T21:46:04.282Z,8.00
2019-02-26T21:48:36.334Z,7.91
2019-02-26T21:51:06.747Z,8.17
2019-02-26T21:53:36.516Z,8.15
2019-02-26T21:56:06.121Z,8.12
2019-02-26T21:58:35.706Z,8.04
2019-02-26T22:01:05.296Z,8.00
2019-02-26T22:03:34.919Z,7.97
2019-02-26T22:06:05.563Z,7.98
2019-02-26T22:08:35.395Z,8.08
2019-02-26T22:11:05.017Z,7.96
2019-02-26T22:13:34.632Z,7.94
2019-02-26T22:16:04.260Z,7.96
2019-02-26T22:18:34.333Z,8.44
2019-02-26T22:21:04.223Z,8.05
2019-02-26T22:23:34.818Z,8.07
2019-02-26T22:26:04.665Z,7.96
2019-02-26T22:28:34.286Z,8.11
2019-02-26T22:31:03.909Z,7.90
2019-02-26T22:33:33.526Z,7.83
2019-02-26T22:36:03.112Z,8.20
2019-02-26T22:38:32.779Z,8.06
2019-02-26T22:41:02.952Z,8.45
2019-02-26T22:43:32.661Z,8.60
2019-02-26T22:46:02.282Z,8.34
2019-02-26T22:48:31.856Z,8.34
2019-02-26T22:51:01.437Z,8.57
2019-02-26T22:53:31.124Z,8.57
2019-02-26T22:56:00.773Z,8.37
2019-02-26T22:58:30.352Z,8.63
2019-02-26T23:01:45.356Z,8.36
2019-02-26T23:04:19.270Z,8.28
2019-02-26T23:06:46.342Z,8.66
2019-02-26T23:09:21.448Z,8.64
2019-02-26T23:11:51.103Z,9.03
2019-02-26T23:14:20.835Z,8.76
2019-02-26T23:16:52.091Z,8.97
2019-02-26T23:19:22.157Z,8.29
2019-02-26T23:21:51.767Z,8.83
2019-02-26T23:24:21.745Z,8.64
2019-02-26T23:26:51.427Z,8.80
2019-02-26T23:29:21.021Z,9.07
2019-02-26T23:31:51.735Z,9.19
2019-02-26T23:34:22.562Z,9.18
2019-02-26T23:36:52.414Z,9.31
2019-02-26T23:39:22.143Z,8.90
2019-02-26T23:41:51.746Z,9.26
2019-02-26T23:44:21.315Z,9.02
2019-02-26T23:46:50.913Z,8.81
2019-02-26T23:49:20.611Z,9.20
2019-02-26T23:51:53.370Z,9.13
2019-02-26T23:54:21.527Z,8.91
2019-02-26T23:56:52.045Z,8.69
2019-02-26T23:59:22.240Z,8.88
